createdAt,value
2018-06-18T00:01:21.861Z,46.60
2018-06-18T00:03:26.546Z,46.80
2018-06-18T00:05:31.243Z,47.50
2018-06-18T00:07:35.895Z,47.60
2018-06-18T00:09:40.533Z,48.10
2018-06-18T00:11:45.394Z,48.30
2018-06-18T00:13:49.999Z,47.90
2018-06-18T00:15:54.745Z,48.20
2018-06-18T00:17:59.328Z,47.60
2018-06-18T00:20:03.973Z,48.10
2018-06-18T00:22:13.012Z,48.40
2018-06-18T00:24:17.678Z,48.30
2018-06-18T00:26:22.329Z,48.50
2018-06-18T00:28:26.900Z,48.10
2018-06-18T00:30:31.541Z,48.60
2018-06-18T00:32:36.216Z,48.30
2018-06-18T00:34:41.135Z,48.70
2018-06-18T00:36:45.725Z,49.00
2018-06-18T00:38:50.386Z,49.20
2018-06-18T00:40:54.962Z,50.60
2018-06-18T00:42:59.527Z,50.70
2018-06-18T00:45:04.241Z,50.20
2018-06-18T00:47:08.870Z,51.00
2018-06-18T00:49:13.457Z,51.00
2018-06-18T00:51:18.106Z,51.30
2018-06-18T00:53:22.754Z,52.20
2018-06-18T00:55:38.485Z,52.40
2018-06-18T00:57:43.123Z,52.90
2018-06-18T00:59:47.693Z,53.00
2018-06-18T01:01:52.276Z,53.60
2018-06-18T01:03:56.911Z,54.30
2018-06-18T01:06:01.470Z,55.20
2018-06-18T01:08:06.212Z,54.70
2018-06-18T01:10:10.730Z,53.90
2018-06-18T01:12:15.289Z,53.70
2018-06-18T01:14:23.722Z,54.80
2018-06-18T01:16:28.435Z,54.70
2018-06-18T01:18:33.090Z,54.70
2018-06-18T01:20:37.651Z,54.00
2018-06-18T01:22:45.705Z,54.70
2018-06-18T01:24:54.899Z,54.30
2018-06-18T01:26:59.549Z,54.50
2018-06-18T01:29:05.130Z,54.50
2018-06-18T01:31:10.560Z,54.70
2018-06-18T01:33:16.089Z,54.40
2018-06-18T01:35:21.251Z,54.50
2018-06-18T01:37:28.134Z,57.50
2018-06-18T01:39:34.962Z,59.50
2018-06-18T01:41:40.661Z,61.00
2018-06-18T01:43:46.132Z,62.30
2018-06-18T01:45:51.381Z,62.80
2018-06-18T01:47:56.663Z,64.00
2018-06-18T01:52:06.811Z,67.30
2018-06-18T01:54:12.906Z,67.90
2018-06-18T01:56:19.650Z,68.50
2018-06-18T01:58:27.715Z,68.70
2018-06-18T02:00:34.221Z,70.10
2018-06-18T02:02:40.200Z,69.50
2018-06-18T02:04:47.001Z,68.70
2018-06-18T02:06:51.718Z,69.10
2018-06-18T02:08:56.967Z,69.20
2018-06-18T02:11:01.718Z,69.70
2018-06-18T02:13:07.228Z,70.00
2018-06-18T02:15:12.475Z,69.40
2018-06-18T02:17:17.959Z,70.10
2018-06-18T02:19:23.272Z,68.80
2018-06-18T02:21:28.889Z,69.70
2018-06-18T02:23:34.126Z,70.10
2018-06-18T02:25:38.792Z,70.00
2018-06-18T02:27:51.346Z,69.90
2018-06-18T02:30:01.160Z,69.30
2018-06-18T02:32:11.113Z,69.70
2018-06-18T02:34:23.782Z,70.00
2018-06-18T02:36:33.764Z,69.90
2018-06-18T02:38:43.891Z,70.20
2018-06-18T02:40:48.665Z,70.20
2018-06-18T02:42:53.468Z,70.10
2018-06-18T02:44:58.106Z,70.30
2018-06-18T02:47:02.790Z,71.10
2018-06-18T02:49:07.581Z,71.10
2018-06-18T02:51:12.246Z,71.30
2018-06-18T02:53:16.831Z,72.00
2018-06-18T02:55:21.824Z,72.40
2018-06-18T02:57:26.430Z,72.80
2018-06-18T02:59:31.209Z,72.70
2018-06-18T03:01:35.796Z,73.30
2018-06-18T03:03:40.654Z,73.30
2018-06-18T03:05:45.289Z,76.20
2018-06-18T03:07:50.143Z,76.90
2018-06-18T03:09:54.738Z,77.70
2018-06-18T03:11:59.510Z,77.80
2018-06-18T03:14:04.439Z,77.90
2018-06-18T03:16:09.177Z,78.00
2018-06-18T03:18:18.994Z,78.20
2018-06-18T03:20:29.002Z,78.40
2018-06-18T03:22:39.310Z,79.00
2018-06-18T03:24:49.041Z,79.40
2018-06-18T03:26:59.084Z,80.00
2018-06-18T03:29:11.681Z,79.80
2018-06-18T03:31:16.239Z,80.20
2018-06-18T03:33:23.028Z,80.00
2018-06-18T03:35:27.603Z,80.50
2018-06-18T03:37:32.194Z,79.60
2018-06-18T03:39:36.993Z,80.10
2018-06-18T03:41:43.466Z,80.60
2018-06-18T03:43:53.444Z,80.70
2018-06-18T03:45:58.130Z,80.90
2018-06-18T03:48:08.907Z,80.30
2018-06-18T03:50:13.599Z,80.40
2018-06-18T03:52:18.571Z,79.70
2018-06-18T03:54:23.241Z,79.80
2018-06-18T03:56:28.319Z,80.40
2018-06-18T03:58:32.918Z,80.60
2018-06-18T04:00:54.879Z,80.30
2018-06-18T04:03:06.339Z,81.40
2018-06-18T04:07:34.563Z,82.10
2018-06-18T04:09:44.420Z,82.10
2018-06-18T04:11:54.299Z,81.60
2018-06-18T04:13:59.190Z,81.10
2018-06-18T04:16:03.956Z,81.60
2018-06-18T04:18:08.780Z,81.40
2018-06-18T04:20:21.902Z,81.50
2018-06-18T04:22:26.553Z,81.40
2018-06-18T04:24:31.356Z,81.60
2018-06-18T04:26:35.978Z,82.20
2018-06-18T04:28:40.626Z,82.10
2018-06-18T04:30:46.349Z,82.10
2018-06-18T04:32:51.976Z,82.10
2018-06-18T04:35:01.690Z,81.90
2018-06-18T04:37:06.325Z,82.20
2018-06-18T04:39:11.113Z,82.50
2018-06-18T04:41:17.360Z,82.20
2018-06-18T04:43:27.231Z,82.40
2018-06-18T04:45:37.096Z,82.40
2018-06-18T04:47:46.992Z,82.70
2018-06-18T04:49:56.761Z,82.80
2018-06-18T04:52:01.370Z,82.70
2018-06-18T04:54:05.979Z,82.30
2018-06-18T04:56:10.627Z,83.10
2018-06-18T04:58:15.189Z,82.50
2018-06-18T05:00:41.319Z,82.70
2018-06-18T05:02:46.100Z,82.20
2018-06-18T05:04:50.999Z,81.10
2018-06-18T05:09:10.992Z,80.50
2018-06-18T05:11:15.758Z,80.60
2018-06-18T05:13:21.857Z,80.20
2018-06-18T05:15:32.557Z,78.90
2018-06-18T05:17:37.242Z,79.30
2018-06-18T05:21:45.917Z,78.30
2018-06-18T05:23:50.520Z,76.90
2018-06-18T05:25:59.472Z,74.20
2018-06-18T05:28:04.101Z,73.80
2018-06-18T05:30:12.377Z,72.80
2018-06-18T05:32:16.969Z,72.90
2018-06-18T05:34:23.864Z,70.30
2018-06-18T05:36:28.521Z,70.00
2018-06-18T05:38:35.484Z,70.30
2018-06-18T05:40:40.216Z,71.40
2018-06-18T05:42:44.886Z,70.60
2018-06-18T05:44:49.507Z,66.20
2018-06-18T05:46:54.210Z,68.40
2018-06-18T05:48:58.886Z,71.40
2018-06-18T05:51:03.511Z,73.60
2018-06-18T05:53:08.240Z,73.40
2018-06-18T05:55:12.802Z,74.80
2018-06-18T05:57:17.508Z,74.10
2018-06-18T05:59:22.119Z,67.70
2018-06-18T06:01:26.861Z,64.30
2018-06-18T06:03:31.425Z,62.70
2018-06-18T06:05:36.140Z,60.00
2018-06-18T06:07:40.710Z,62.00
2018-06-18T06:09:45.367Z,56.50
2018-06-18T06:11:49.967Z,55.90
2018-06-18T06:13:54.554Z,53.20
2018-06-18T06:16:00.345Z,51.10
2018-06-18T06:18:05.145Z,53.80
2018-06-18T06:20:10.125Z,52.50
2018-06-18T06:22:14.755Z,45.10
2018-06-18T06:24:19.435Z,39.00
2018-06-18T06:26:24.137Z,40.70
2018-06-18T06:28:28.835Z,42.40
2018-06-18T06:30:33.417Z,37.50
2018-06-18T06:32:38.131Z,35.90
2018-06-18T06:34:45.358Z,37.30
2018-06-18T06:36:50.048Z,37.50
2018-06-18T06:38:54.694Z,38.80
2018-06-18T06:40:59.362Z,37.40
2018-06-18T06:43:03.976Z,36.40
2018-06-18T06:45:08.781Z,40.00
2018-06-18T06:47:13.381Z,40.90
2018-06-18T06:49:18.208Z,34.90
2018-06-18T06:51:22.811Z,32.60
2018-06-18T06:53:27.440Z,33.20
2018-06-18T06:55:31.998Z,36.20
2018-06-18T06:57:36.670Z,32.80
2018-06-18T06:59:41.202Z,32.40
2018-06-18T07:01:45.964Z,33.20
2018-06-18T07:03:50.506Z,32.70
2018-06-18T07:05:55.186Z,29.20
2018-06-18T07:07:59.793Z,32.60
2018-06-18T07:10:04.521Z,29.10
2018-06-18T07:12:09.094Z,29.80
2018-06-18T07:14:13.701Z,28.50
2018-06-18T07:16:18.235Z,28.60
2018-06-18T07:18:22.799Z,28.10
2018-06-18T07:20:27.360Z,26.10
2018-06-18T07:22:31.989Z,25.60
2018-06-18T07:24:36.522Z,25.00
2018-06-18T07:26:41.117Z,25.70
2018-06-18T07:28:45.628Z,22.90
2018-06-18T07:30:50.290Z,26.00
2018-06-18T07:32:54.837Z,25.30
2018-06-18T07:34:59.465Z,24.90
2018-06-18T07:37:04.048Z,23.30
2018-06-18T07:39:09.095Z,21.30
2018-06-18T07:41:13.647Z,22.90
2018-06-18T07:43:18.342Z,21.00
2018-06-18T07:45:22.933Z,21.70
2018-06-18T07:47:27.616Z,21.40
2018-06-18T07:49:32.203Z,25.70
2018-06-18T07:51:36.904Z,23.00
2018-06-18T07:53:41.507Z,19.00
2018-06-18T07:55:46.098Z,20.80
2018-06-18T07:57:50.724Z,21.00
2018-06-18T07:59:55.359Z,22.60
2018-06-18T08:04:04.137Z,22.70
2018-06-18T08:06:08.761Z,22.10
2018-06-18T08:08:13.435Z,19.40
2018-06-18T08:10:18.044Z,19.60
2018-06-18T08:12:22.827Z,19.80
2018-06-18T08:14:27.411Z,16.70
2018-06-18T08:16:32.051Z,18.00
2018-06-18T08:18:36.686Z,20.40
2018-06-18T08:20:41.329Z,19.40
2018-06-18T08:22:46.406Z,20.70
2018-06-18T08:24:51.573Z,21.10
2018-06-18T08:26:56.235Z,19.00
2018-06-18T08:29:00.846Z,18.90
2018-06-18T08:31:05.431Z,15.70
2018-06-18T08:33:10.178Z,13.90
2018-06-18T08:35:14.802Z,19.00
2018-06-18T08:37:19.424Z,20.60
2018-06-18T08:39:24.083Z,21.50
2018-06-18T08:41:28.855Z,16.80
2018-06-18T08:43:33.459Z,15.20
2018-06-18T08:45:38.123Z,17.30
2018-06-18T08:47:42.708Z,16.00
2018-06-18T08:49:52.631Z,15.90
2018-06-18T08:52:02.434Z,14.50
2018-06-18T08:54:12.209Z,15.30
2018-06-18T08:56:21.940Z,13.30
2018-06-18T08:58:31.898Z,10.00
2018-06-18T09:00:41.800Z,9.40
2018-06-18T09:02:48.478Z,11.60
2018-06-18T09:04:58.295Z,12.30
2018-06-18T09:07:07.116Z,15.40
2018-06-18T09:09:11.704Z,15.30
2018-06-18T09:11:17.122Z,8.40
2018-06-18T09:13:22.846Z,10.40
2018-06-18T09:15:28.195Z,12.10
2018-06-18T09:17:33.649Z,8.20
2018-06-18T09:19:38.699Z,8.80
2018-06-18T09:21:44.037Z,12.10
2018-06-18T09:23:49.208Z,10.60
2018-06-18T09:25:58.899Z,7.70
2018-06-18T09:28:03.869Z,7.30
2018-06-18T09:30:12.407Z,8.70
2018-06-18T09:32:17.418Z,6.40
2018-06-18T09:34:22.410Z,2.30
2018-06-18T09:36:27.187Z,2.80
2018-06-18T09:38:32.144Z,5.40
2018-06-18T09:40:37.087Z,7.10
2018-06-18T09:42:43.128Z,8.70
2018-06-18T09:44:48.175Z,8.00
2018-06-18T09:46:53.233Z,7.00
2018-06-18T09:49:03.601Z,5.80
2018-06-18T09:53:22.252Z,3.60
2018-06-18T09:55:32.385Z,5.90
2018-06-18T09:57:42.680Z,7.10
2018-06-18T09:59:52.811Z,6.70
2018-06-18T10:01:58.090Z,8.20
2018-06-18T10:04:05.168Z,8.00
2018-06-18T10:06:10.459Z,11.30
2018-06-18T10:08:15.861Z,10.80
2018-06-18T10:10:21.232Z,13.20
2018-06-18T10:12:26.741Z,8.30
2018-06-18T10:14:32.357Z,4.90
2018-06-18T10:16:37.668Z,6.00
2018-06-18T10:18:42.956Z,5.10
2018-06-18T10:20:48.339Z,4.40
2018-06-18T10:22:53.584Z,5.60
2018-06-18T10:24:58.883Z,6.30
2018-06-18T10:27:04.163Z,10.90
2018-06-18T10:29:09.335Z,9.70
2018-06-18T10:31:14.838Z,8.90
2018-06-18T10:33:25.283Z,7.00
2018-06-18T10:35:35.825Z,7.40
2018-06-18T10:37:46.470Z,9.30
2018-06-18T10:39:57.257Z,10.50
2018-06-18T10:42:07.830Z,12.30
2018-06-18T10:44:13.098Z,11.20
2018-06-18T10:46:19.683Z,9.90
2018-06-18T10:48:25.664Z,11.50
2018-06-18T10:50:30.977Z,10.80
2018-06-18T10:52:37.586Z,10.70
2018-06-18T10:54:43.488Z,9.40
2018-06-18T10:56:48.683Z,11.20
2018-06-18T10:58:53.937Z,11.60
2018-06-18T11:01:04.726Z,12.80
2018-06-18T11:03:10.403Z,10.10
2018-06-18T11:05:16.537Z,11.00
2018-06-18T11:07:22.188Z,10.80
2018-06-18T11:09:27.663Z,13.20
2018-06-18T11:11:33.713Z,15.90
2018-06-18T11:15:43.819Z,10.20
2018-06-18T11:17:54.432Z,11.20
2018-06-18T11:20:05.118Z,10.70
2018-06-18T11:22:10.490Z,14.20
2018-06-18T11:24:20.737Z,12.90
2018-06-18T11:26:31.243Z,12.80
2018-06-18T11:28:37.061Z,13.40
2018-06-18T11:30:42.357Z,13.60
2018-06-18T11:32:47.590Z,14.20
2018-06-18T11:34:52.801Z,13.80
2018-06-18T11:36:58.353Z,14.00
2018-06-18T11:39:05.383Z,11.60
2018-06-18T11:41:10.694Z,11.90
2018-06-18T11:43:16.028Z,12.10
2018-06-18T11:45:21.332Z,11.20
2018-06-18T11:47:27.144Z,10.90
2018-06-18T11:49:32.480Z,10.30
2018-06-18T11:51:37.623Z,11.50
2018-06-18T11:53:42.879Z,14.40
2018-06-18T11:55:48.311Z,14.20
2018-06-18T11:57:53.611Z,12.50
2018-06-18T12:00:04.142Z,12.90
2018-06-18T12:02:14.539Z,11.40
2018-06-18T12:04:25.015Z,11.10
2018-06-18T12:06:35.109Z,11.10
2018-06-18T12:08:45.683Z,12.90
2018-06-18T12:10:51.795Z,11.90
2018-06-18T12:12:57.157Z,13.30
2018-06-18T12:15:02.466Z,12.70
2018-06-18T12:17:08.292Z,12.30
2018-06-18T12:19:13.354Z,11.70
2018-06-18T12:21:18.546Z,10.90
2018-06-18T12:23:23.854Z,11.00
2018-06-18T12:25:29.201Z,9.40
2018-06-18T12:29:39.540Z,9.90
2018-06-18T12:31:44.723Z,7.40
2018-06-18T12:33:50.096Z,7.50
2018-06-18T12:37:59.898Z,9.90
2018-06-18T12:40:05.104Z,10.80
2018-06-18T12:42:10.768Z,13.50
2018-06-18T12:44:19.163Z,11.20
2018-06-18T12:46:29.392Z,13.90
2018-06-18T12:48:39.658Z,11.40
2018-06-18T12:50:50.855Z,11.00
2018-06-18T12:53:01.190Z,10.30
2018-06-18T12:55:11.724Z,10.40
2018-06-18T12:57:17.156Z,12.10
2018-06-18T12:59:22.659Z,10.80
2018-06-18T13:01:30.603Z,11.40
2018-06-18T13:03:36.040Z,9.40
2018-06-18T13:05:41.274Z,10.20
2018-06-18T13:07:46.751Z,12.10
2018-06-18T13:09:52.092Z,12.20
2018-06-18T13:11:58.122Z,13.70
2018-06-18T13:14:03.955Z,11.90
2018-06-18T13:16:09.417Z,10.20
2018-06-18T13:18:15.290Z,7.90
2018-06-18T13:20:20.748Z,10.60
2018-06-18T13:22:26.506Z,11.60
2018-06-18T13:24:32.073Z,13.60
2018-06-18T13:28:42.429Z,11.70
2018-06-18T13:30:47.759Z,12.10
2018-06-18T13:32:53.440Z,11.00
2018-06-18T13:34:58.761Z,13.50
2018-06-18T13:37:09.209Z,13.60
2018-06-18T13:39:19.664Z,13.40
2018-06-18T13:41:30.039Z,10.50
2018-06-18T13:43:40.349Z,10.70
2018-06-18T13:45:48.520Z,11.70
2018-06-18T13:47:59.134Z,12.30
2018-06-18T13:50:04.662Z,11.40
2018-06-18T13:52:10.462Z,11.20
2018-06-18T13:54:16.090Z,11.00
2018-06-18T13:56:21.507Z,12.50
2018-06-18T13:58:26.865Z,13.70
2018-06-18T14:00:32.253Z,13.70
2018-06-18T14:02:37.552Z,14.50
2018-06-18T14:04:42.889Z,13.70
2018-06-18T14:06:48.097Z,13.80
2018-06-18T14:08:53.510Z,12.40
2018-06-18T14:10:58.789Z,12.50
2018-06-18T14:13:04.378Z,13.50
2018-06-18T14:15:09.664Z,12.10
2018-06-18T14:17:15.119Z,11.70
2018-06-18T14:19:25.660Z,8.50
2018-06-18T14:21:30.906Z,9.00
2018-06-18T14:23:36.567Z,9.50
2018-06-18T14:25:41.899Z,9.80
2018-06-18T14:27:47.178Z,10.10
2018-06-18T14:29:57.881Z,10.60
2018-06-18T14:32:03.842Z,9.60
2018-06-18T14:34:14.431Z,10.80
2018-06-18T14:38:34.911Z,13.30
2018-06-18T14:40:40.229Z,13.70
2018-06-18T14:42:45.600Z,11.30
2018-06-18T14:44:51.538Z,10.50
2018-06-18T14:46:56.166Z,11.90
2018-06-18T14:49:00.924Z,10.90
2018-06-18T14:51:05.568Z,10.60
2018-06-18T14:53:10.244Z,11.10
2018-06-18T14:55:15.530Z,12.00
2018-06-18T14:57:20.229Z,12.40
2018-06-18T14:59:34.524Z,11.30
2018-06-18T15:01:39.322Z,12.40
2018-06-18T15:03:44.072Z,12.90
2018-06-18T15:05:48.680Z,13.70
2018-06-18T15:07:53.472Z,13.10
2018-06-18T15:09:58.149Z,13.70
2018-06-18T15:12:02.865Z,13.30
2018-06-18T15:14:07.543Z,13.20
2018-06-18T15:16:17.245Z,14.60
2018-06-18T15:18:21.960Z,13.90
2018-06-18T15:20:26.613Z,14.40
2018-06-18T15:22:32.310Z,15.60
2018-06-18T15:24:49.911Z,15.20
2018-06-18T15:26:54.935Z,15.60
2018-06-18T15:29:00.028Z,15.20
2018-06-18T15:31:04.680Z,15.60
2018-06-18T15:33:09.366Z,16.70
2018-06-18T15:35:14.066Z,16.00
2018-06-18T15:37:18.772Z,15.90
2018-06-18T15:39:23.407Z,15.70
2018-06-18T15:41:28.076Z,15.50
2018-06-18T15:43:32.742Z,15.70
2018-06-18T15:45:37.487Z,13.90
2018-06-18T15:47:42.104Z,15.30
2018-06-18T15:49:46.657Z,14.90
2018-06-18T15:51:51.366Z,14.50
2018-06-18T15:53:56.580Z,15.30
2018-06-18T15:56:01.333Z,17.00
2018-06-18T15:58:24.853Z,15.40
2018-06-18T16:00:34.294Z,16.80
2018-06-18T16:02:41.065Z,17.40
2018-06-18T16:04:45.741Z,18.70
2018-06-18T16:06:50.709Z,15.70
2018-06-18T16:08:55.444Z,17.10
2018-06-18T16:11:00.019Z,17.70
2018-06-18T16:13:05.598Z,18.60
2018-06-18T16:15:10.245Z,17.40
2018-06-18T16:17:14.876Z,16.60
2018-06-18T16:19:19.540Z,17.10
2018-06-18T16:21:24.107Z,16.10
2018-06-18T16:23:28.812Z,17.30
2018-06-18T16:25:33.407Z,17.20
2018-06-18T16:27:38.008Z,18.80
2018-06-18T16:29:43.442Z,19.10
2018-06-18T16:31:48.404Z,18.00
2018-06-18T16:33:53.256Z,18.00
2018-06-18T16:35:57.827Z,17.80
2018-06-18T16:38:02.592Z,17.80
2018-06-18T16:40:07.175Z,18.00
2018-06-18T16:42:11.845Z,18.60
2018-06-18T16:44:16.608Z,17.90
2018-06-18T16:46:21.269Z,18.90
2018-06-18T16:48:25.921Z,20.40
2018-06-18T16:50:31.649Z,20.20
2018-06-18T16:52:36.191Z,19.80
2018-06-18T16:54:40.801Z,20.30
2018-06-18T16:56:45.350Z,22.20
2018-06-18T16:58:50.044Z,21.30
2018-06-18T17:00:54.576Z,21.10
2018-06-18T17:02:59.679Z,21.40
2018-06-18T17:05:04.489Z,21.50
2018-06-18T17:07:10.409Z,20.40
2018-06-18T17:09:15.121Z,22.10
2018-06-18T17:11:21.802Z,20.70
2018-06-18T17:13:27.244Z,21.50
2018-06-18T17:15:32.166Z,21.60
2018-06-18T17:17:36.911Z,21.20
2018-06-18T17:19:41.459Z,21.60
2018-06-18T17:21:46.000Z,22.00
2018-06-18T17:23:50.875Z,22.10
2018-06-18T17:25:55.652Z,22.00
2018-06-18T17:28:00.317Z,21.50
2018-06-18T17:32:09.318Z,18.70
2018-06-18T17:34:13.915Z,19.40
2018-06-18T17:36:18.741Z,20.90
2018-06-18T17:38:23.303Z,21.20
2018-06-18T17:40:28.000Z,20.60
2018-06-18T17:42:35.157Z,18.70
2018-06-18T17:44:40.176Z,19.70
2018-06-18T17:46:44.864Z,19.90
2018-06-18T17:48:49.633Z,20.70
2018-06-18T17:50:54.149Z,22.10
2018-06-18T17:53:00.663Z,22.00
2018-06-18T17:55:05.250Z,21.60
2018-06-18T17:57:27.321Z,20.40
2018-06-18T17:59:33.366Z,21.60
2018-06-18T18:01:42.926Z,20.70
2018-06-18T18:03:49.225Z,21.20
2018-06-18T18:05:53.933Z,21.30
2018-06-18T18:07:58.518Z,20.90
2018-06-18T18:10:03.573Z,21.80
2018-06-18T18:12:08.144Z,21.70
2018-06-18T18:14:12.736Z,21.60
2018-06-18T18:18:21.580Z,21.80
2018-06-18T18:20:26.174Z,22.60
2018-06-18T18:22:30.835Z,23.20
2018-06-18T18:24:35.395Z,23.00
2018-06-18T18:26:39.995Z,23.30
2018-06-18T18:30:48.736Z,23.70
2018-06-18T18:32:53.521Z,23.60
2018-06-18T18:34:58.135Z,24.60
2018-06-18T18:37:02.782Z,24.30
2018-06-18T18:39:09.005Z,24.90
2018-06-18T18:41:13.664Z,24.40
2018-06-18T18:43:18.223Z,24.70
2018-06-18T18:45:22.866Z,24.80
2018-06-18T18:47:27.518Z,25.20
2018-06-18T18:49:32.448Z,25.20
2018-06-18T18:51:36.965Z,24.70
2018-06-18T18:53:41.757Z,24.40
2018-06-18T18:55:58.718Z,26.00
2018-06-18T18:58:15.882Z,25.90
2018-06-18T19:00:20.509Z,25.20
2018-06-18T19:02:25.146Z,26.50
2018-06-18T19:04:50.089Z,26.50
2018-06-18T19:06:54.788Z,27.00
2018-06-18T19:08:59.363Z,27.60
2018-06-18T19:11:04.675Z,28.00
2018-06-18T19:13:11.384Z,27.60
2018-06-18T19:15:16.142Z,28.30
2018-06-18T19:17:20.796Z,28.30
2018-06-18T19:19:28.090Z,29.00
2018-06-18T19:21:32.682Z,29.00
2018-06-18T19:23:37.333Z,29.20
2018-06-18T19:25:41.928Z,29.70
2018-06-18T19:27:46.439Z,29.50
2018-06-18T19:29:50.975Z,29.70
2018-06-18T19:31:55.565Z,30.00
2018-06-18T19:34:05.339Z,30.40
2018-06-18T19:36:10.040Z,31.10
2018-06-18T19:38:14.583Z,33.10
2018-06-18T19:40:19.204Z,32.60
2018-06-18T19:42:23.907Z,32.80
2018-06-18T19:44:28.651Z,32.60
2018-06-18T19:46:44.552Z,33.20
2018-06-18T19:48:55.611Z,33.60
2018-06-18T19:51:00.265Z,33.40
2018-06-18T19:53:04.889Z,34.00
2018-06-18T19:55:15.040Z,34.40
2018-06-18T19:57:19.644Z,35.10
2018-06-18T19:59:24.224Z,35.50
2018-06-18T20:01:28.983Z,35.90
2018-06-18T20:03:33.699Z,36.10
2018-06-18T20:08:03.098Z,36.00
2018-06-18T20:10:07.729Z,37.20
2018-06-18T20:12:12.467Z,37.20
2018-06-18T20:14:17.960Z,37.10
2018-06-18T20:16:22.714Z,38.00
2018-06-18T20:18:28.176Z,37.80
2018-06-18T20:20:32.916Z,37.80
2018-06-18T20:22:37.786Z,38.70
2018-06-18T20:24:44.090Z,39.20
2018-06-18T20:26:48.818Z,39.10
2018-06-18T20:28:53.436Z,40.00
2018-06-18T20:30:58.376Z,39.90
2018-06-18T20:33:03.033Z,40.60
2018-06-18T20:35:16.768Z,40.90
2018-06-18T20:37:21.401Z,41.20
2018-06-18T20:41:30.267Z,41.80
2018-06-18T20:43:40.866Z,42.30
2018-06-18T20:45:46.595Z,42.10
2018-06-18T20:47:51.401Z,42.50
2018-06-18T20:49:56.330Z,43.50
2018-06-18T20:52:01.242Z,43.60
2018-06-18T20:54:06.726Z,44.30
2018-06-18T20:56:11.319Z,44.20
2018-06-18T20:58:16.656Z,44.60
2018-06-18T21:00:21.278Z,44.50
2018-06-18T21:02:26.102Z,44.30
2018-06-18T21:04:30.654Z,45.10
2018-06-18T21:06:35.645Z,46.30
2018-06-18T21:08:42.093Z,46.60
2018-06-18T21:10:46.929Z,47.70
2018-06-18T21:12:51.611Z,47.60
2018-06-18T21:14:59.559Z,48.30
2018-06-18T21:17:04.813Z,48.40
2018-06-18T21:19:09.636Z,48.80
2018-06-18T21:21:14.940Z,49.90
2018-06-18T21:23:20.814Z,50.20
2018-06-18T21:25:27.812Z,51.20
2018-06-18T21:27:37.677Z,51.30
2018-06-18T21:29:43.992Z,51.80
2018-06-18T21:31:49.426Z,53.20
2018-06-18T21:33:57.954Z,53.30
2018-06-18T21:36:04.307Z,55.40
2018-06-18T21:38:13.483Z,55.90
2018-06-18T21:40:23.615Z,58.00
2018-06-18T21:42:31.244Z,58.10
2018-06-18T21:44:57.658Z,59.30
2018-06-18T21:47:03.160Z,58.30
2018-06-18T21:49:09.867Z,60.60
2018-06-18T21:51:15.002Z,60.60
2018-06-18T21:53:20.395Z,61.80
2018-06-18T21:55:28.051Z,60.90
2018-06-18T21:57:33.753Z,61.30
2018-06-18T21:59:38.587Z,61.00
2018-06-18T22:01:45.135Z,60.80
2018-06-18T22:03:49.732Z,61.20
2018-06-18T22:05:54.433Z,61.20
2018-06-18T22:07:59.104Z,60.80
2018-06-18T22:10:03.681Z,60.80
2018-06-18T22:12:08.300Z,60.70
2018-06-18T22:14:12.873Z,60.80
2018-06-18T22:16:17.572Z,61.00
2018-06-18T22:18:22.141Z,61.10
2018-06-18T22:20:26.871Z,61.60
2018-06-18T22:22:31.512Z,62.00
2018-06-18T22:24:36.165Z,61.90
2018-06-18T22:26:40.673Z,62.00
2018-06-18T22:28:45.348Z,62.00
2018-06-18T22:30:49.952Z,62.60
2018-06-18T22:32:54.623Z,62.80
2018-06-18T22:34:59.173Z,63.10
2018-06-18T22:37:03.764Z,64.30
2018-06-18T22:39:10.576Z,64.60
2018-06-18T22:41:15.285Z,65.20
2018-06-18T22:43:19.870Z,65.70
2018-06-18T22:45:24.527Z,65.30
2018-06-18T22:47:29.230Z,65.90
2018-06-18T22:49:33.956Z,66.00
2018-06-18T22:51:38.553Z,66.40
2018-06-18T22:53:43.206Z,66.20
2018-06-18T22:55:47.723Z,66.10
2018-06-18T22:57:52.323Z,66.40
2018-06-18T22:59:56.968Z,67.80
2018-06-18T23:02:01.763Z,67.90
2018-06-18T23:04:06.395Z,68.60
2018-06-18T23:06:11.127Z,69.50
2018-06-18T23:08:15.744Z,69.90
2018-06-18T23:10:20.308Z,70.60
2018-06-18T23:12:32.500Z,71.40
2018-06-18T23:14:37.586Z,72.60
2018-06-18T23:16:42.296Z,72.90
2018-06-18T23:18:46.898Z,73.40
2018-06-18T23:20:51.613Z,73.80
2018-06-18T23:22:56.873Z,72.80
2018-06-18T23:25:01.545Z,74.50
2018-06-18T23:27:06.690Z,74.80
2018-06-18T23:29:13.885Z,75.40
2018-06-18T23:31:18.443Z,76.20
2018-06-18T23:33:23.113Z,76.20
2018-06-18T23:35:27.687Z,76.40
2018-06-18T23:37:32.299Z,76.80
2018-06-18T23:39:36.911Z,77.30
2018-06-18T23:41:45.806Z,78.10
2018-06-18T23:43:50.804Z,78.60
2018-06-18T23:45:55.494Z,79.30
2018-06-18T23:48:00.081Z,79.90
2018-06-18T23:50:04.845Z,80.50
2018-06-18T23:52:09.439Z,80.80
2018-06-18T23:54:14.142Z,79.80
2018-06-18T23:56:18.830Z,79.80
2018-06-18T23:58:23.446Z,80.30
